Time;durP1;ratioP1;P1;durP2;ratioP2;P2;SDS_P1;SDS_P2;PMS_P1;PMS_P2;Temp;Humidity;BMP_temperature;BMP_pressure;BME280_temperature;BME280_humidity;BME280_pressure;Samples;Min_cycle;Max_cycle;Signal;HPM_P1;HPM_P2
2023/01/22 00:00:19;;;;;;;14.67;10.20;;;;;;;0.55;100.00;100074.66;5031467;28;20228;-77
2023/01/22 00:02:48;;;;;;;16.53;10.70;;;;;;;0.57;100.00;100075.53;5023115;28;20244;-78
2023/01/22 00:05:16;;;;;;;15.50;10.63;;;;;;;0.57;100.00;100072.03;5070057;28;20235;-76
2023/01/22 00:07:45;;;;;;;15.83;9.90;;;;;;;0.57;100.00;100067.69;5024272;28;20377;-77
2023/01/22 00:10:14;;;;;;;14.90;9.77;;;;;;;0.60;100.00;100074.66;5024912;28;20194;-77
2023/01/22 00:12:44;;;;;;;15.40;9.27;;;;;;;0.59;100.00;100078.13;5025285;28;20331;-77
2023/01/22 00:15:15;;;;;;;16.17;10.30;;;;;;;0.60;100.00;100071.19;5026658;28;20205;-76
2023/01/22 00:17:43;;;;;;;14.20;9.37;;;;;;;0.62;100.00;100078.09;5028665;28;20707;-77
2023/01/22 00:20:13;;;;;;;14.30;8.63;;;;;;;0.73;100.00;100070.19;5025205;28;20617;-77
2023/01/22 00:22:41;;;;;;;12.80;8.30;;;;;;;0.77;100.00;100071.88;4969395;28;20223;-77
2023/01/22 00:25:12;;;;;;;12.90;8.57;;;;;;;0.65;100.00;100062.41;4978944;28;20189;-77
2023/01/22 00:27:42;;;;;;;11.83;8.73;;;;;;;0.62;100.00;100059.84;5031409;28;20227;-77
2023/01/22 00:30:13;;;;;;;12.60;8.97;;;;;;;0.63;100.00;100058.09;5028432;28;20201;-77
2023/01/22 00:32:43;;;;;;;12.70;7.97;;;;;;;0.64;100.00;100070.25;5030814;28;20201;-77
2023/01/22 00:35:12;;;;;;;11.73;8.03;;;;;;;0.69;100.00;100056.31;5029631;28;20280;-77
2023/01/22 00:37:42;;;;;;;13.10;8.47;;;;;;;0.67;100.00;100054.59;5029186;28;20778;-77
2023/01/22 00:40:13;;;;;;;11.70;8.30;;;;;;;0.67;100.00;100059.78;5036836;28;20192;-77
2023/01/22 00:42:42;;;;;;;13.90;8.60;;;;;;;0.65;100.00;100061.56;5073154;28;20697;-78
2023/01/22 00:45:14;;;;;;;12.50;8.37;;;;;;;0.66;100.00;100058.06;5072917;28;20188;-77
2023/01/22 00:47:42;;;;;;;11.90;8.57;;;;;;;0.63;100.00;100058.09;5068985;28;20265;-78
2023/01/22 00:50:12;;;;;;;13.83;7.93;;;;;;;0.70;100.00;100051.97;5072419;28;20234;-77
2023/01/22 00:52:40;;;;;;;10.77;7.17;;;;;;;0.69;100.00;100048.50;5070938;28;20254;-77
2023/01/22 00:55:09;;;;;;;11.20;7.87;;;;;;;0.64;100.00;100045.06;5069067;28;20193;-77
2023/01/22 00:57:38;;;;;;;11.93;7.97;;;;;;;0.66;100.00;100053.72;5067576;28;20188;-77
2023/01/22 01:00:09;;;;;;;10.83;7.80;;;;;;;0.69;100.00;100039.81;5069084;28;20189;-77
2023/01/22 01:05:24;;;;;;;10.07;7.43;;;;;;;0.67;100.00;100037.19;5071436;28;20257;-77
2023/01/22 01:07:53;;;;;;;11.40;7.30;;;;;;;0.68;100.00;100030.28;5069479;28;20640;-77
2023/01/22 01:10:21;;;;;;;10.67;6.83;;;;;;;0.81;100.00;100037.06;5067827;28;20279;-77
2023/01/22 01:12:49;;;;;;;10.73;7.50;;;;;;;0.69;100.00;100035.47;5070718;28;20192;-77
2023/01/22 01:15:19;;;;;;;8.73;6.30;;;;;;;0.69;100.00;100043.28;5066599;28;20207;-77
2023/01/22 01:17:49;;;;;;;9.17;6.57;;;;;;;0.69;100.00;100042.44;5064019;28;20262;-77
2023/01/22 01:20:18;;;;;;;9.33;6.77;;;;;;;0.72;100.00;100040.63;5066924;28;20271;-77
2023/01/22 01:22:47;;;;;;;9.80;6.73;;;;;;;0.72;100.00;100037.16;5001619;28;20194;-77
2023/01/22 01:25:16;;;;;;;9.47;6.70;;;;;;;0.71;100.00;100031.09;4990091;28;20198;-76
2023/01/22 01:27:45;;;;;;;8.30;5.90;;;;;;;0.72;100.00;100035.41;5003506;28;20190;-77
2023/01/22 01:30:16;;;;;;;8.67;6.60;;;;;;;0.68;100.00;100030.28;4998988;28;20297;-77
2023/01/22 01:32:45;;;;;;;11.00;6.53;;;;;;;0.79;100.00;100039.69;4973905;28;20282;-77
2023/01/22 01:35:15;;;;;;;7.80;5.63;;;;;;;0.76;100.00;100034.50;5003206;28;20260;-77
2023/01/22 01:37:44;;;;;;;7.37;6.37;;;;;;;0.65;100.00;100035.50;5004793;28;20233;-76
2023/01/22 01:40:13;;;;;;;9.37;6.80;;;;;;;0.69;100.00;100035.47;5014769;28;20192;-76
2023/01/22 01:42:43;;;;;;;7.80;5.93;;;;;;;0.75;100.00;100032.78;5024009;28;20197;-77
2023/01/22 01:45:24;;;;;;;7.73;5.23;;;;;;;0.76;100.00;100028.41;5023558;28;20209;-77
2023/01/22 01:48:00;;;;;;;7.17;5.70;;;;;;;0.76;100.00;100033.63;5027463;28;20273;-77
2023/01/22 01:50:30;;;;;;;7.13;5.60;;;;;;;0.71;100.00;100025.88;5027715;28;20239;-77
2023/01/22 01:53:01;;;;;;;7.93;5.97;;;;;;;0.72;100.00;100017.19;5028758;28;20295;-77
2023/01/22 01:55:33;;;;;;;7.33;5.43;;;;;;;0.77;100.00;100025.81;5023594;28;20197;-77
2023/01/22 01:58:09;;;;;;;7.20;5.53;;;;;;;0.77;100.00;100025.81;5024964;28;20197;-77
2023/01/22 02:00:41;;;;;;;8.63;5.70;;;;;;;0.79;100.00;100024.06;5044126;28;20203;-77
2023/01/22 02:03:12;;;;;;;6.43;4.97;;;;;;;0.78;100.00;100019.72;5070512;28;20232;-77
2023/01/22 02:05:42;;;;;;;7.50;5.30;;;;;;;0.82;100.00;100021.41;5063279;28;20230;-77
2023/01/22 02:08:11;;;;;;;7.03;5.47;;;;;;;0.74;100.00;100014.53;5065216;28;20212;-77
2023/01/22 02:10:41;;;;;;;8.20;5.10;;;;;;;0.76;100.00;100018.84;5070930;28;20246;-77
2023/01/22 02:13:14;;;;;;;7.03;5.63;;;;;;;0.78;100.00;100022.34;5071588;28;20600;-76
2023/01/22 02:15:43;;;;;;;7.10;5.07;;;;;;;0.77;100.00;100022.31;5071691;28;20215;-77
2023/01/22 02:18:11;;;;;;;6.53;5.40;;;;;;;0.82;100.00;100031.84;5007607;28;20209;-76
2023/01/22 02:20:54;;;;;;;7.27;5.17;;;;;;;0.84;100.00;100016.19;5000834;28;20288;-77
2023/01/22 02:23:24;;;;;;;6.87;5.17;;;;;;;0.76;100.00;100010.16;5010049;28;20198;-78
2023/01/22 02:25:54;;;;;;;5.97;4.77;;;;;;;0.79;100.00;100015.38;5007731;28;20218;-78
2023/01/22 02:28:23;;;;;;;7.03;4.83;;;;;;;0.79;100.00;100015.38;5010176;28;20662;-77
2023/01/22 02:30:54;;;;;;;8.07;4.93;;;;;;;0.80;100.00;100022.31;5007616;28;20363;-77
2023/01/22 02:33:22;;;;;;;7.20;4.77;;;;;;;0.83;100.00;100020.53;4966367;28;20203;-78
2023/01/22 02:35:52;;;;;;;5.17;4.13;;;;;;;0.86;100.00;100010.06;4971808;28;20199;-77
2023/01/22 02:38:21;;;;;;;5.63;4.80;;;;;;;0.84;100.00;100019.66;4975544;28;20196;-78
2023/01/22 02:40:50;;;;;;;6.80;5.37;;;;;;;0.86;100.00;100025.69;4975881;28;20263;-77
2023/01/22 02:43:18;;;;;;;6.27;4.80;;;;;;;0.85;100.00;100023.97;4998979;28;20233;-77
2023/01/22 02:45:47;;;;;;;7.33;5.10;;;;;;;0.93;100.00;100020.44;4977011;28;20653;-78
2023/01/22 02:48:17;;;;;;;6.33;5.13;;;;;;;0.83;100.00;100017.91;5008959;28;20202;-78
2023/01/22 02:50:47;;;;;;;5.20;4.20;;;;;;;0.88;100.00;100022.25;5012200;28;20288;-77
2023/01/22 02:53:18;;;;;;;4.60;4.03;;;;;;;0.83;100.00;100010.09;5059331;28;20196;-77
2023/01/22 02:55:47;;;;;;;4.93;4.20;;;;;;;0.92;100.00;100010.88;5073145;28;20200;-78
2023/01/22 02:58:17;;;;;;;7.07;4.60;;;;;;;0.86;100.00;100004.84;5074795;28;20223;-78
2023/01/22 03:00:46;;;;;;;6.17;4.40;;;;;;;0.87;100.00;100005.72;5074031;28;20192;-77
2023/01/22 03:03:16;;;;;;;6.03;4.30;;;;;;;0.94;100.00;100009.13;5044637;28;20315;-77
2023/01/22 03:05:48;;;;;;;5.20;4.43;;;;;;;0.90;100.00;100004.81;5045749;28;20263;-77
2023/01/22 03:08:19;;;;;;;5.80;4.13;;;;;;;0.94;100.00;100009.13;5053172;28;20197;-78
2023/01/22 03:10:48;;;;;;;4.67;4.00;;;;;;;0.92;100.00;100008.28;5048682;28;20213;-79
2023/01/22 03:21:37;;;;;;;4.67;3.53;;;;;;;0.90;100.00;99999.59;5048896;28;20200;-77
2023/01/22 03:24:08;;;;;;;4.73;4.00;;;;;;;0.93;100.00;100012.59;5047300;28;20574;-78
2023/01/22 03:26:37;;;;;;;5.27;4.47;;;;;;;0.96;100.00;100018.63;5052736;28;20193;-78
2023/01/22 03:29:08;;;;;;;6.00;4.20;;;;;;;0.94;100.00;100011.72;5067340;28;20246;-77
2023/01/22 03:31:38;;;;;;;5.40;3.83;;;;;;;0.96;100.00;100005.59;5068223;28;20262;-78
2023/01/22 03:34:07;;;;;;;5.47;4.10;;;;;;;0.99;100.00;100007.34;5072444;28;20193;-77
2023/01/22 03:36:36;;;;;;;5.57;3.90;;;;;;;1.04;100.00;100011.59;5076261;28;20701;-78
2023/01/22 03:39:06;;;;;;;5.70;3.80;;;;;;;1.00;100.00;100009.91;5068375;28;20226;-78
2023/01/22 03:41:34;;;;;;;4.87;3.73;;;;;;;1.04;100.00;100009.00;5072457;28;20651;-78
2023/01/22 03:44:08;;;;;;;4.57;3.70;;;;;;;1.12;100.00;100011.50;5070134;28;20204;-78
2023/01/22 03:46:36;;;;;;;5.40;3.67;;;;;;;1.11;100.00;100012.41;5068896;28;20199;-77
2023/01/22 03:49:05;;;;;;;5.17;4.00;;;;;;;1.11;100.00;100012.41;5074539;28;20195;-78
2023/01/22 03:51:35;;;;;;;4.83;3.90;;;;;;;1.07;100.00;100016.78;5073565;28;20188;-78
2023/01/22 03:54:07;;;;;;;5.97;4.13;;;;;;;1.09;100.00;100014.16;5072004;28;20230;-78
2023/01/22 03:56:35;;;;;;;4.27;3.87;;;;;;;1.07;100.00;100010.72;5074465;28;20207;-77
2023/01/22 03:59:07;;;;;;;4.60;3.50;;;;;;;1.12;100.00;100009.75;5073642;28;20201;-78
2023/01/22 04:01:37;;;;;;;4.37;3.97;;;;;;;1.15;100.00;100008.84;5073629;28;20228;-78
2023/01/22 04:04:05;;;;;;;4.40;3.40;;;;;;;1.13;100.00;100000.19;5074083;28;20193;-77
2023/01/22 04:06:34;;;;;;;4.93;3.77;;;;;;;1.10;100.00;100016.75;5071725;28;20199;-78
2023/01/22 04:09:03;;;;;;;4.70;3.80;;;;;;;1.03;100.00;100028.13;5069949;28;20193;-78
2023/01/22 04:11:33;;;;;;;5.20;3.70;;;;;;;1.07;100.00;100019.41;5066617;28;20216;-78
2023/01/22 04:14:02;;;;;;;4.73;4.13;;;;;;;1.06;100.00;100022.00;5071134;28;20204;-78
2023/01/22 04:16:31;;;;;;;5.40;3.83;;;;;;;1.05;100.00;100018.53;5068645;28;20238;-78
2023/01/22 04:19:00;;;;;;;4.43;3.43;;;;;;;1.05;100.00;100015.94;5011849;28;20249;-77
2023/01/22 04:21:29;;;;;;;3.70;3.40;;;;;;;1.12;100.00;100011.50;5008028;28;20203;-77
2023/01/22 04:23:57;;;;;;;6.03;4.10;;;;;;;1.12;100.00;100025.41;5008300;28;20218;-78
2023/01/22 04:26:26;;;;;;;4.57;3.53;;;;;;;1.08;100.00;100031.56;5008535;28;20191;-79
2023/01/22 04:28:58;;;;;;;5.20;4.03;;;;;;;1.09;100.00;100025.47;5008961;28;20205;-78
2023/01/22 04:31:28;;;;;;;4.43;3.60;;;;;;;1.12;100.00;100025.41;5008229;28;20245;-78
2023/01/22 04:33:57;;;;;;;4.20;3.43;;;;;;;1.20;100.00;100017.50;5010129;28;20287;-78
2023/01/22 04:36:25;;;;;;;4.47;3.17;;;;;;;1.16;100.00;100028.88;5005003;28;20586;-78
2023/01/22 04:38:57;;;;;;;4.10;3.53;;;;;;;1.08;100.00;100017.66;4991467;28;20314;-78
2023/01/22 04:41:26;;;;;;;4.47;3.23;;;;;;;1.14;100.00;100026.25;4989552;28;20195;-77
2023/01/22 04:43:58;;;;;;;4.30;3.63;;;;;;;1.17;100.00;100008.88;5035277;28;20311;-77
2023/01/22 04:46:28;;;;;;;4.70;3.50;;;;;;;1.25;100.00;100005.25;5048400;28;20205;-77
2023/01/22 04:48:56;;;;;;;4.43;3.67;;;;;;;1.23;100.00;100016.59;4969335;28;20192;-78
2023/01/22 04:51:25;;;;;;;4.97;3.73;;;;;;;1.19;100.00;100010.56;4963334;28;20223;-77
2023/01/22 04:53:53;;;;;;;6.63;3.67;;;;;;;1.27;100.00;100010.47;4972215;28;20254;-77
2023/01/22 04:56:22;;;;;;;3.93;3.53;;;;;;;1.14;100.00;100013.22;4966275;28;20262;-77
2023/01/22 04:58:50;;;;;;;4.30;3.50;;;;;;;1.18;100.00;100021.03;4964221;28;20196;-78
2023/01/22 05:01:20;;;;;;;3.83;3.33;;;;;;;1.16;100.00;100015.81;4965895;28;20254;-78
2023/01/22 05:03:49;;;;;;;4.17;3.77;;;;;;;1.10;100.00;100016.75;4982451;28;20230;-78
2023/01/22 05:06:17;;;;;;;4.20;3.80;;;;;;;1.10;100.00;100011.53;5007368;28;20198;-78
2023/01/22 05:08:46;;;;;;;4.67;3.90;;;;;;;1.07;100.00;100008.97;5008574;28;20194;-77
2023/01/22 05:11:19;;;;;;;5.07;3.90;;;;;;;1.12;100.00;100008.91;4990752;28;20214;-78
2023/01/22 05:13:48;;;;;;;4.40;3.90;;;;;;;1.11;100.00;100021.09;4928687;29;20205;-77
2023/01/22 05:16:34;;;;;;;4.73;3.93;;;;;;;1.15;100.00;100025.38;4932230;29;20204;-77
2023/01/22 05:19:04;;;;;;;4.17;3.53;;;;;;;1.15;100.00;100025.38;4839052;29;20692;-77
2023/01/22 05:21:33;;;;;;;4.17;3.67;;;;;;;1.13;100.00;100028.88;4838681;29;20287;-78
2023/01/22 05:24:01;;;;;;;4.47;3.87;;;;;;;1.26;100.00;100030.50;4839802;29;20245;-77
2023/01/22 05:26:30;;;;;;;5.87;4.30;;;;;;;1.13;100.00;100032.34;4872931;29;20213;-78
2023/01/22 05:29:08;;;;;;;4.30;3.87;;;;;;;1.10;100.00;100027.19;4910367;29;20257;-77
2023/01/22 05:31:40;;;;;;;5.30;4.17;;;;;;;1.11;100.00;100031.53;4915354;29;20221;-77
2023/01/22 05:34:09;;;;;;;4.60;3.90;;;;;;;1.10;100.00;100032.41;4908753;29;20269;-77
2023/01/22 05:36:39;;;;;;;6.33;4.13;;;;;;;1.18;100.00;100029.72;4932868;28;20198;-77
2023/01/22 05:39:07;;;;;;;4.50;4.10;;;;;;;1.17;100.00;100032.34;5003606;28;20296;-77
2023/01/22 05:41:36;;;;;;;5.33;4.20;;;;;;;1.07;100.00;100037.66;5013671;28;20212;-77
2023/01/22 05:44:06;;;;;;;5.27;4.50;;;;;;;1.13;100.00;100028.88;5030536;28;20276;-77
2023/01/22 05:46:35;;;;;;;4.77;4.30;;;;;;;1.16;100.00;100034.09;5067522;28;20199;-77
2023/01/22 05:49:07;;;;;;;4.60;4.10;;;;;;;1.13;100.00;100045.41;5068308;28;20188;-77
2023/01/22 05:51:40;;;;;;;5.00;4.33;;;;;;;1.21;100.00;100044.47;5067606;28;20273;-77
2023/01/22 05:54:11;;;;;;;4.27;3.87;;;;;;;1.29;100.00;100042.63;5075554;28;20208;-77
2023/01/22 05:56:43;;;;;;;4.63;4.13;;;;;;;1.31;100.00;100043.47;5067762;28;20207;-77
2023/01/22 05:59:13;;;;;;;5.73;4.00;;;;;;;1.20;100.00;100048.81;5071122;28;20293;-77
2023/01/22 06:01:41;;;;;;;5.20;3.83;;;;;;;1.17;100.00;100054.06;5070133;28;20248;-77
2023/01/22 06:04:11;;;;;;;5.67;4.27;;;;;;;1.18;100.00;100058.41;5071681;28;20188;-77
2023/01/22 06:06:41;;;;;;;6.67;4.50;;;;;;;1.15;100.00;100061.03;5064555;28;20199;-77
2023/01/22 06:09:12;;;;;;;4.93;4.00;;;;;;;1.11;100.00;100056.75;5068235;28;20704;-77
2023/01/22 06:11:41;;;;;;;5.83;4.77;;;;;;;1.12;100.00;100061.94;5075362;28;20222;-77
2023/01/22 06:14:10;;;;;;;5.40;4.60;;;;;;;1.09;100.00;100054.16;5071164;28;20204;-77
2023/01/22 06:16:39;;;;;;;5.43;4.23;;;;;;;1.18;100.00;100061.03;5075688;28;20245;-77
2023/01/22 06:19:07;;;;;;;5.37;4.13;;;;;;;1.15;100.00;100058.41;5073808;28;20192;-77
2023/01/22 06:21:39;;;;;;;4.87;4.37;;;;;;;1.22;100.00;100054.88;5074757;28;20217;-77
2023/01/22 06:24:13;;;;;;;5.37;4.70;;;;;;;1.13;100.00;100068.03;5075244;28;20723;-78
2023/01/22 06:26:41;;;;;;;6.00;4.60;;;;;;;1.33;100.00;100062.56;5076806;28;20188;-78
2023/01/22 06:29:10;;;;;;;5.00;4.50;;;;;;;1.27;100.00;100068.75;5068796;28;20188;-77
2023/01/22 06:31:40;;;;;;;6.60;4.57;;;;;;;1.43;100.00;100072.00;5070351;28;20208;-77
2023/01/22 06:34:09;;;;;;;4.93;4.40;;;;;;;1.31;100.00;100061.72;5075667;28;20189;-78
2023/01/22 06:36:40;;;;;;;5.10;4.60;;;;;;;1.34;100.00;100061.69;5074631;28;20200;-77
2023/01/22 06:39:10;;;;;;;4.80;4.20;;;;;;;1.32;100.00;100066.94;5074260;28;20196;-77
2023/01/22 06:41:39;;;;;;;5.57;4.80;;;;;;;1.21;100.00;100067.94;5071624;28;20245;-77
2023/01/22 06:44:07;;;;;;;4.70;4.20;;;;;;;1.29;100.00;100077.41;5078159;28;20192;-77
2023/01/22 06:46:36;;;;;;;6.20;4.50;;;;;;;1.55;100.00;100077.09;5041539;28;20197;-76
2023/01/22 06:49:04;;;;;;;5.07;4.50;;;;;;;1.32;100.00;100081.72;5075145;28;20202;-80
2023/01/22 06:51:32;;;;;;;6.20;4.67;;;;;;;1.36;100.00;100080.81;5074040;28;20212;-77
2023/01/22 06:54:03;;;;;;;4.57;4.00;;;;;;;1.41;100.00;100087.69;5071476;28;20189;-77
2023/01/22 06:56:32;;;;;;;5.23;4.73;;;;;;;1.38;100.00;100087.75;5071645;28;20266;-77
2023/01/22 06:59:01;;;;;;;6.07;4.97;;;;;;;1.25;100.00;100099.19;5072700;28;20219;-78
2023/01/22 07:01:29;;;;;;;6.07;4.53;;;;;;;1.45;100.00;100088.53;5072684;28;20203;-77
2023/01/22 07:03:58;;;;;;;6.30;5.27;;;;;;;1.34;100.00;100091.25;5072369;28;20200;-77
2023/01/22 07:06:27;;;;;;;6.10;4.90;;;;;;;1.25;100.00;100106.16;5073896;28;20200;-77
2023/01/22 07:08:56;;;;;;;32.40;26.63;;;;;;;1.30;100.00;100105.22;5067718;28;20197;-77
2023/01/22 07:11:26;;;;;;;5.13;4.50;;;;;;;1.21;100.00;100097.50;5070910;28;20216;-77
2023/01/22 07:13:55;;;;;;;5.40;4.70;;;;;;;1.50;100.00;100111.97;5073196;28;20257;-77
2023/01/22 07:16:23;;;;;;;6.17;4.77;;;;;;;1.46;100.00;100112.91;5070637;28;20250;-77
2023/01/22 07:18:52;;;;;;;5.80;4.87;;;;;;;1.37;100.00;100113.88;5066387;28;20200;-77
2023/01/22 07:21:22;;;;;;;6.70;4.77;;;;;;;1.35;100.00;100115.59;5065962;28;20203;-77
2023/01/22 07:23:54;;;;;;;5.50;4.73;;;;;;;1.30;100.00;100118.28;5005256;28;20644;-78
2023/01/22 07:26:26;;;;;;;5.50;4.23;;;;;;;1.40;100.00;100125.13;5075032;28;20192;-77
2023/01/22 07:28:55;;;;;;;6.57;4.80;;;;;;;1.30;100.00;100128.72;5012160;28;20195;-78
2023/01/22 07:31:24;;;;;;;5.43;4.53;;;;;;;1.42;100.00;100136.41;5010021;28;20345;-78
2023/01/22 07:33:52;;;;;;;5.00;4.30;;;;;;;1.39;100.00;100132.97;5008413;28;20404;-78
2023/01/22 07:36:21;;;;;;;5.30;4.53;;;;;;;1.50;100.00;100131.09;5011417;28;20195;-78
2023/01/22 07:38:49;;;;;;;5.47;4.20;;;;;;;1.50;100.00;100140.69;5005523;28;20197;-78
2023/01/22 07:41:18;;;;;;;6.13;4.67;;;;;;;1.67;100.00;100138.75;4988253;28;20202;-78
2023/01/22 07:43:56;;;;;;;5.33;4.67;;;;;;;1.68;100.00;100143.94;4989152;28;20210;-78
2023/01/22 07:46:26;;;;;;;5.33;3.93;;;;;;;1.65;100.00;100135.28;4989000;28;20226;-78
2023/01/22 07:48:55;;;;;;;5.23;4.60;;;;;;;1.83;100.00;100142.88;4990362;28;20294;-78
2023/01/22 07:51:23;;;;;;;7.10;4.97;;;;;;;1.84;100.00;100138.53;4985196;28;20203;-78
2023/01/22 07:53:51;;;;;;;6.07;4.50;;;;;;;1.92;100.00;100147.13;4983337;28;20302;-78
2023/01/22 07:56:20;;;;;;;4.90;4.23;;;;;;;1.89;100.00;100145.41;4990262;28;20202;-78
2023/01/22 07:58:49;;;;;;;4.77;4.27;;;;;;;1.98;100.00;100149.66;4986708;28;20195;-78
2023/01/22 08:01:19;;;;;;;5.87;4.40;;;;;;;1.88;100.00;100148.91;5028464;28;20193;-78
2023/01/22 08:03:47;;;;;;;5.07;4.17;;;;;;;1.95;100.00;100152.31;5029467;28;20205;-78
2023/01/22 08:06:19;;;;;;;4.83;4.00;;;;;;;2.03;100.00;100152.19;5053916;28;20188;-77
2023/01/22 08:08:50;;;;;;;5.27;4.23;;;;;;;2.05;100.00;100153.94;5074224;28;20184;-78
2023/01/22 08:11:18;;;;;;;5.80;4.50;;;;;;;1.96;100.00;100156.66;5072200;28;20185;-78
2023/01/22 08:13:46;;;;;;;4.30;3.90;;;;;;;1.85;100.00;100161.16;5072943;28;20224;-78
2023/01/22 08:16:15;;;;;;;5.47;4.00;;;;;;;1.99;100.00;100159.22;5073469;28;20208;-78
2023/01/22 08:18:48;;;;;;;4.80;4.07;;;;;;;2.00;100.00;100163.56;5071083;28;20207;-77
2023/01/22 08:21:16;;;;;;;4.77;4.10;;;;;;;2.01;100.00;100163.53;5072295;28;20189;-78
2023/01/22 08:23:44;;;;;;;4.50;3.90;;;;;;;2.00;100.00;100172.25;5075759;28;20227;-78
2023/01/22 08:26:16;;;;;;;4.77;4.03;;;;;;;2.05;100.00;100169.59;5073498;28;20372;-78
2023/01/22 08:28:44;;;;;;;3.97;3.50;;;;;;;2.00;100.00;100159.19;5068450;28;20204;-78
2023/01/22 08:31:13;;;;;;;4.17;3.77;;;;;;;2.11;100.00;100177.34;5072138;28;20200;-78
2023/01/22 08:33:59;;;;;;;4.00;3.47;;;;;;;2.06;100.00;100173.94;5070715;28;20294;-78
2023/01/22 08:36:27;;;;;;;4.67;3.67;;;;;;;2.06;100.00;100186.16;5071526;28;20242;-78
2023/01/22 08:38:55;;;;;;;5.37;4.10;;;;;;;2.02;100.00;100177.47;5070601;28;20204;-77
2023/01/22 08:41:26;;;;;;;4.23;3.80;;;;;;;2.04;100.00;100186.19;5075589;28;20204;-78
2023/01/22 08:43:55;;;;;;;4.30;3.70;;;;;;;2.19;100.00;100178.09;5073396;28;20199;-78
2023/01/22 08:46:24;;;;;;;4.40;3.73;;;;;;;2.03;100.00;100173.09;5070117;28;20279;-78
2023/01/22 08:48:53;;;;;;;4.70;4.17;;;;;;;2.18;100.00;100178.13;5070216;28;20192;-79
2023/01/22 08:51:23;;;;;;;5.43;4.63;;;;;;;1.98;100.00;100183.63;5068124;28;20208;-78
2023/01/22 08:53:52;;;;;;;44.20;28.03;;;;;;;2.08;100.00;100180.00;5072010;28;20216;-78
2023/01/22 08:56:21;;;;;;;5.23;4.40;;;;;;;1.94;100.00;100195.00;5068473;28;20185;-78
2023/01/22 08:58:50;;;;;;;11.77;6.60;;;;;;;1.89;100.00;100199.41;5072942;28;20189;-78
2023/01/22 09:01:20;;;;;;;4.50;4.10;;;;;;;1.99;100.00;100193.19;5072507;28;20200;-78
2023/01/22 09:03:49;;;;;;;8.97;6.73;;;;;;;2.01;100.00;100202.72;5063938;28;20279;-78
2023/01/22 09:06:18;;;;;;;8.73;5.87;;;;;;;2.15;100.00;100196.47;5065619;28;20193;-78
2023/01/22 09:08:55;;;;;;;5.90;4.07;;;;;;;2.19;100.00;100203.38;5073294;28;20283;-78
2023/01/22 09:11:26;;;;;;;4.13;3.73;;;;;;;2.08;100.00;100210.50;5063094;28;20223;-77
2023/01/22 09:13:55;;;;;;;4.57;3.80;;;;;;;2.01;100.00;100207.09;5064101;28;20242;-77
2023/01/22 09:16:24;;;;;;;4.37;3.97;;;;;;;2.38;100.00;100204.88;5072577;28;20196;-78
2023/01/22 09:18:52;;;;;;;4.13;3.60;;;;;;;2.17;100.00;100215.63;5071590;28;20252;-78
2023/01/22 09:21:21;;;;;;;3.83;3.47;;;;;;;2.29;100.00;100211.09;5065914;28;20225;-78
2023/01/22 09:23:50;;;;;;;4.80;4.20;;;;;;;2.52;100.00;100215.16;5068887;28;20196;-78
2023/01/22 09:26:19;;;;;;;6.13;4.70;;;;;;;2.30;100.00;100214.56;5071502;28;20204;-78
2023/01/22 09:28:49;;;;;;;4.40;3.63;;;;;;;2.45;100.00;100214.34;5067715;28;20208;-78
2023/01/22 09:31:17;;;;;;;4.63;3.43;;;;;;;2.39;100.00;100214.44;5063067;28;20196;-78
2023/01/22 09:33:50;;;;;;;5.03;3.97;;;;;;;2.44;100.00;100215.25;5072389;28;20218;-78
2023/01/22 09:36:18;;;;;;;4.13;3.70;;;;;;;2.23;100.00;100213.78;5064069;28;20228;-78
2023/01/22 09:38:47;;;;;;;5.27;3.60;;;;;;;2.27;100.00;100209.38;5069432;28;20222;-78
2023/01/22 09:41:25;;;;;;;4.67;3.60;;;;;;;2.26;100.00;100215.50;5068318;28;20212;-78
2023/01/22 09:43:59;;;;;;;4.27;3.70;;;;;;;2.39;100.00;100222.28;5072222;28;20192;-78
2023/01/22 09:46:34;;;;;;;4.27;3.87;;;;;;;2.49;100.00;100220.41;5067865;28;20218;-78
2023/01/22 09:49:11;;;;;;;3.77;3.43;;;;;;;2.61;100.00;100219.38;5064606;28;20260;-78
2023/01/22 09:51:39;;;;;;;4.07;3.57;;;;;;;2.62;100.00;100221.09;5070984;28;20192;-78
2023/01/22 09:54:11;;;;;;;5.60;4.50;;;;;;;2.56;100.00;100222.06;5065298;28;20220;-78
2023/01/22 09:56:44;;;;;;;4.50;3.17;;;;;;;2.62;100.00;100221.09;5071781;28;20184;-77
2023/01/22 09:59:18;;;;;;;5.80;5.20;;;;;;;2.63;100.00;100228.06;5066413;28;20278;-77
2023/01/22 10:01:51;;;;;;;3.20;2.90;;;;;;;2.71;100.00;100221.84;5067835;28;20235;-77
2023/01/22 10:04:31;;;;;;;3.83;2.90;;;;;;;2.64;100.00;100219.31;5068167;28;20220;-78
2023/01/22 10:07:03;;;;;;;3.10;2.77;;;;;;;2.53;100.00;100216.88;5068120;28;20204;-78
2023/01/22 10:09:34;;;;;;;3.87;3.47;;;;;;;2.41;100.00;100217.88;5072413;28;20199;-78
2023/01/22 10:12:13;;;;;;;3.00;2.57;;;;;;;2.47;100.00;100220.44;5070204;28;20207;-77
2023/01/22 10:14:44;;;;;;;10.20;8.17;;;;;;;2.45;100.00;100231.78;5068889;28;20223;-78
2023/01/22 10:17:18;;;;;;;12.67;9.23;;;;;;;2.55;100.00;100226.41;5069227;28;20193;-78
2023/01/22 10:19:54;;;;;;;4.63;3.23;;;;;;;2.63;100.00;100223.69;5071936;28;20188;-78
2023/01/22 10:22:24;;;;;;;4.63;2.90;;;;;;;2.52;100.00;100220.38;5070508;28;20232;-78
2023/01/22 10:24:53;;;;;;;3.37;3.07;;;;;;;2.54;100.00;100215.97;5069101;28;20204;-78
2023/01/22 10:27:32;;;;;;;3.23;2.90;;;;;;;2.59;100.00;100216.75;5068992;28;20194;-78
2023/01/22 10:30:03;;;;;;;2.60;2.40;;;;;;;2.57;100.00;100226.38;5071282;28;20200;-78
2023/01/22 10:32:32;;;;;;;2.70;2.50;;;;;;;2.48;100.00;100218.66;5068939;28;20192;-78
2023/01/22 10:35:04;;;;;;;3.47;3.17;;;;;;;2.41;100.00;100219.63;5071272;28;20266;-78
2023/01/22 10:37:43;;;;;;;5.00;4.40;;;;;;;2.53;100.00;100219.47;5068422;28;20200;-78
2023/01/22 10:40:22;;;;;;;2.40;2.20;;;;;;;2.43;100.00;100218.75;5070673;28;20245;-79
2023/01/22 10:43:10;;;;;;;4.00;2.63;;;;;;;2.53;100.00;100230.81;5065666;28;20188;-78
2023/01/22 10:45:39;;;;;;;2.77;2.57;;;;;;;2.52;100.00;100229.09;5050092;28;20204;-78
2023/01/22 10:48:13;;;;;;;3.53;2.93;;;;;;;2.67;100.00;100227.13;5070070;28;20193;-79
2023/01/22 10:50:44;;;;;;;2.90;2.60;;;;;;;2.57;100.00;100224.63;5068933;28;20230;-78
2023/01/22 10:53:23;;;;;;;2.70;2.50;;;;;;;2.51;100.00;100224.75;5069506;28;20192;-79
2023/01/22 10:55:54;;;;;;;3.40;3.10;;;;;;;2.58;100.00;100226.34;5067968;28;20204;-78
2023/01/22 10:58:28;;;;;;;3.47;2.83;;;;;;;2.55;100.00;100221.19;5072433;28;20261;-78
2023/01/22 11:00:59;;;;;;;3.50;2.80;;;;;;;2.59;100.00;100228.09;5071193;28;20204;-78
2023/01/22 11:03:34;;;;;;;5.03;3.50;;;;;;;2.65;100.00;100228.91;5074567;28;20247;-77
2023/01/22 11:06:10;;;;;;;4.37;3.90;;;;;;;2.52;100.00;100223.84;5066592;28;20214;-77
2023/01/22 11:08:45;;;;;;;3.17;2.87;;;;;;;2.70;100.00;100227.06;5070963;28;20244;-78
2023/01/22 11:11:16;;;;;;;11.30;8.20;;;;;;;2.70;100.00;100225.34;5072022;28;20200;-78
2023/01/22 11:13:53;;;;;;;4.70;4.20;;;;;;;2.60;100.00;100223.72;5073487;28;20212;-78
2023/01/22 11:16:24;;;;;;;19.53;14.37;;;;;;;2.51;100.00;100229.97;5074660;28;20206;-78
2023/01/22 11:18:57;;;;;;;13.57;9.63;;;;;;;2.43;100.00;100226.59;5074650;28;20216;-79
2023/01/22 11:21:30;;;;;;;14.57;10.77;;;;;;;2.57;100.00;100229.00;5070546;28;20207;-79
2023/01/22 11:24:04;;;;;;;10.17;8.13;;;;;;;2.55;100.00;100226.41;5074995;28;20200;-78
2023/01/22 11:26:58;;;;;;;8.10;6.60;;;;;;;2.48;100.00;100231.75;5074521;28;20188;-78
2023/01/22 11:29:45;;;;;;;5.70;4.43;;;;;;;2.66;100.00;100222.78;5073099;28;20196;-78
2023/01/22 11:32:39;;;;;;;12.90;8.60;;;;;;;2.67;100.00;100222.75;5072868;28;20724;-79
2023/01/22 11:35:19;;;;;;;27.30;19.00;;;;;;;2.71;100.00;100227.06;5072734;28;20220;-78
2023/01/22 11:37:59;;;;;;;33.17;25.40;;;;;;;2.74;100.00;100224.41;5071507;28;20189;-78
2023/01/22 11:40:29;;;;;;;7.70;7.00;;;;;;;2.63;100.00;100215.84;5052423;28;20308;-78
2023/01/22 11:43:17;;;;;;;4.10;3.43;;;;;;;2.55;100.00;100217.72;5052256;28;20647;-78
2023/01/22 11:46:09;;;;;;;4.20;3.80;;;;;;;2.65;100.00;100223.66;5048235;28;20197;-78
2023/01/22 11:48:55;;;;;;;6.60;6.00;;;;;;;2.60;100.00;100228.94;5049602;28;20193;-78
2023/01/22 11:51:32;;;;;;;11.40;8.53;;;;;;;2.65;100.00;100221.06;5047426;28;20216;-78